sensor_id;sensor_type;location;lat;lon;timestamp;P1;durP1;ratioP1;P2;durP2;ratioP2
18090;SDS011;9172;49.948;9.208;2024-02-04T00:00:18;2.07;;;1.30;;
18090;SDS011;9172;49.948;9.208;2024-02-04T00:02:47;2.27;;;1.30;;
18090;SDS011;9172;49.948;9.208;2024-02-04T00:05:15;1.33;;;1.07;;
18090;SDS011;9172;49.948;9.208;2024-02-04T00:07:44;1.70;;;1.27;;
18090;SDS011;9172;49.948;9.208;2024-02-04T00:10:13;2.73;;;1.20;;
18090;SDS011;9172;49.948;9.208;2024-02-04T00:12:43;1.47;;;1.03;;
18090;SDS011;9172;49.948;9.208;2024-02-04T00:15:12;5.97;;;1.30;;
18090;SDS011;9172;49.948;9.208;2024-02-04T00:17:40;1.93;;;1.40;;
18090;SDS011;9172;49.948;9.208;2024-02-04T00:20:09;1.33;;;1.23;;
18090;SDS011;9172;49.948;9.208;2024-02-04T00:22:38;1.60;;;1.43;;
18090;SDS011;9172;49.948;9.208;2024-02-04T00:25:07;2.03;;;1.53;;
18090;SDS011;9172;49.948;9.208;2024-02-04T00:27:38;1.20;;;1.00;;
18090;SDS011;9172;49.948;9.208;2024-02-04T00:30:07;1.93;;;1.40;;
18090;SDS011;9172;49.948;9.208;2024-02-04T00:32:37;1.30;;;1.00;;
18090;SDS011;9172;49.948;9.208;2024-02-04T00:35:06;1.27;;;1.10;;
18090;SDS011;9172;49.948;9.208;2024-02-04T00:37:35;2.10;;;1.40;;
18090;SDS011;9172;49.948;9.208;2024-02-04T00:40:04;1.93;;;1.40;;
18090;SDS011;9172;49.948;9.208;2024-02-04T00:42:34;1.73;;;1.40;;
18090;SDS011;9172;49.948;9.208;2024-02-04T00:45:03;2.53;;;1.40;;
18090;SDS011;9172;49.948;9.208;2024-02-04T00:47:33;1.53;;;1.20;;
18090;SDS011;9172;49.948;9.208;2024-02-04T00:50:01;1.60;;;1.10;;
18090;SDS011;9172;49.948;9.208;2024-02-04T00:52:30;2.53;;;1.20;;
18090;SDS011;9172;49.948;9.208;2024-02-04T00:54:59;1.60;;;1.30;;
18090;SDS011;9172;49.948;9.208;2024-02-04T00:57:28;2.07;;;1.40;;
18090;SDS011;9172;49.948;9.208;2024-02-04T00:59:57;3.80;;;1.37;;
18090;SDS011;9172;49.948;9.208;2024-02-04T01:02:25;1.23;;;1.10;;
18090;SDS011;9172;49.948;9.208;2024-02-04T01:04:54;1.77;;;1.23;;
18090;SDS011;9172;49.948;9.208;2024-02-04T01:07:22;1.57;;;1.20;;
18090;SDS011;9172;49.948;9.208;2024-02-04T01:09:51;1.60;;;1.20;;
18090;SDS011;9172;49.948;9.208;2024-02-04T01:12:20;1.50;;;1.10;;
18090;SDS011;9172;49.948;9.208;2024-02-04T01:14:48;1.63;;;1.20;;
18090;SDS011;9172;49.948;9.208;2024-02-04T01:17:17;1.20;;;1.10;;
18090;SDS011;9172;49.948;9.208;2024-02-04T01:19:45;1.87;;;1.20;;
18090;SDS011;9172;49.948;9.208;2024-02-04T01:22:14;2.67;;;1.17;;
18090;SDS011;9172;49.948;9.208;2024-02-04T01:24:43;1.87;;;1.30;;
18090;SDS011;9172;49.948;9.208;2024-02-04T01:27:13;1.77;;;1.23;;
18090;SDS011;9172;49.948;9.208;2024-02-04T01:29:41;1.50;;;1.20;;
18090;SDS011;9172;49.948;9.208;2024-02-04T01:32:10;1.63;;;1.20;;
18090;SDS011;9172;49.948;9.208;2024-02-04T01:34:38;2.47;;;1.20;;
18090;SDS011;9172;49.948;9.208;2024-02-04T01:37:07;2.50;;;1.63;;
18090;SDS011;9172;49.948;9.208;2024-02-04T01:39:35;1.37;;;1.03;;
18090;SDS011;9172;49.948;9.208;2024-02-04T01:42:04;2.17;;;1.37;;
18090;SDS011;9172;49.948;9.208;2024-02-04T01:44:34;1.43;;;1.10;;
18090;SDS011;9172;49.948;9.208;2024-02-04T01:47:03;1.30;;;1.10;;
18090;SDS011;9172;49.948;9.208;2024-02-04T01:49:31;2.27;;;1.67;;
18090;SDS011;9172;49.948;9.208;2024-02-04T01:52:00;1.30;;;1.13;;
18090;SDS011;9172;49.948;9.208;2024-02-04T01:54:29;1.30;;;1.00;;
18090;SDS011;9172;49.948;9.208;2024-02-04T01:56:59;1.33;;;1.20;;
18090;SDS011;9172;49.948;9.208;2024-02-04T01:59:29;1.50;;;1.23;;
18090;SDS011;9172;49.948;9.208;2024-02-04T02:01:58;3.10;;;1.40;;
18090;SDS011;9172;49.948;9.208;2024-02-04T02:04:28;3.10;;;1.33;;
18090;SDS011;9172;49.948;9.208;2024-02-04T02:06:56;1.83;;;1.40;;
18090;SDS011;9172;49.948;9.208;2024-02-04T02:09:26;1.27;;;1.07;;
18090;SDS011;9172;49.948;9.208;2024-02-04T02:11:57;1.90;;;1.40;;
18090;SDS011;9172;49.948;9.208;2024-02-04T02:14:41;1.57;;;1.00;;
18090;SDS011;9172;49.948;9.208;2024-02-04T02:17:11;1.40;;;1.20;;
18090;SDS011;9172;49.948;9.208;2024-02-04T02:19:46;1.77;;;1.10;;
18090;SDS011;9172;49.948;9.208;2024-02-04T02:22:22;1.50;;;1.10;;
18090;SDS011;9172;49.948;9.208;2024-02-04T02:24:53;2.10;;;1.50;;
18090;SDS011;9172;49.948;9.208;2024-02-04T02:27:25;1.40;;;1.30;;
18090;SDS011;9172;49.948;9.208;2024-02-04T02:29:54;1.80;;;1.10;;
18090;SDS011;9172;49.948;9.208;2024-02-04T02:32:22;2.50;;;1.50;;
18090;SDS011;9172;49.948;9.208;2024-02-04T02:34:51;2.10;;;1.50;;
18090;SDS011;9172;49.948;9.208;2024-02-04T02:37:26;2.10;;;1.50;;
18090;SDS011;9172;49.948;9.208;2024-02-04T02:39:58;2.47;;;1.67;;
18090;SDS011;9172;49.948;9.208;2024-02-04T02:42:29;1.83;;;1.47;;
18090;SDS011;9172;49.948;9.208;2024-02-04T02:44:59;1.87;;;1.37;;
18090;SDS011;9172;49.948;9.208;2024-02-04T02:47:29;1.60;;;1.40;;
18090;SDS011;9172;49.948;9.208;2024-02-04T02:50:00;2.17;;;1.40;;
18090;SDS011;9172;49.948;9.208;2024-02-04T02:52:29;1.73;;;1.43;;
18090;SDS011;9172;49.948;9.208;2024-02-04T02:54:57;2.07;;;1.70;;
18090;SDS011;9172;49.948;9.208;2024-02-04T02:57:26;2.33;;;1.60;;
18090;SDS011;9172;49.948;9.208;2024-02-04T02:59:54;2.87;;;1.63;;
18090;SDS011;9172;49.948;9.208;2024-02-04T03:02:23;2.67;;;1.40;;
18090;SDS011;9172;49.948;9.208;2024-02-04T03:04:51;2.73;;;1.67;;
18090;SDS011;9172;49.948;9.208;2024-02-04T03:07:20;3.20;;;1.73;;
18090;SDS011;9172;49.948;9.208;2024-02-04T03:09:48;1.70;;;1.30;;
18090;SDS011;9172;49.948;9.208;2024-02-04T03:12:17;1.70;;;1.40;;
18090;SDS011;9172;49.948;9.208;2024-02-04T03:14:45;1.90;;;1.60;;
18090;SDS011;9172;49.948;9.208;2024-02-04T03:17:14;2.47;;;1.70;;
18090;SDS011;9172;49.948;9.208;2024-02-04T03:19:44;2.20;;;1.70;;
18090;SDS011;9172;49.948;9.208;2024-02-04T03:22:13;2.20;;;1.70;;
18090;SDS011;9172;49.948;9.208;2024-02-04T03:24:42;2.00;;;1.40;;
18090;SDS011;9172;49.948;9.208;2024-02-04T03:27:10;1.30;;;1.20;;
18090;SDS011;9172;49.948;9.208;2024-02-04T03:29:39;7.63;;;1.87;;
18090;SDS011;9172;49.948;9.208;2024-02-04T03:32:07;1.97;;;1.37;;
18090;SDS011;9172;49.948;9.208;2024-02-04T03:34:37;3.93;;;1.43;;
18090;SDS011;9172;49.948;9.208;2024-02-04T03:37:07;1.60;;;1.20;;
18090;SDS011;9172;49.948;9.208;2024-02-04T03:39:36;2.00;;;1.27;;
18090;SDS011;9172;49.948;9.208;2024-02-04T03:42:05;1.70;;;1.10;;
18090;SDS011;9172;49.948;9.208;2024-02-04T03:44:33;2.53;;;1.87;;
18090;SDS011;9172;49.948;9.208;2024-02-04T03:47:02;1.47;;;1.10;;
18090;SDS011;9172;49.948;9.208;2024-02-04T03:49:30;0.90;;;0.80;;
18090;SDS011;9172;49.948;9.208;2024-02-04T03:51:59;0.87;;;0.80;;
18090;SDS011;9172;49.948;9.208;2024-02-04T03:54:28;1.30;;;1.10;;
18090;SDS011;9172;49.948;9.208;2024-02-04T03:56:56;0.83;;;0.77;;
18090;SDS011;9172;49.948;9.208;2024-02-04T03:59:25;1.50;;;1.00;;
18090;SDS011;9172;49.948;9.208;2024-02-04T04:01:54;1.00;;;0.90;;
18090;SDS011;9172;49.948;9.208;2024-02-04T04:04:24;1.10;;;1.00;;
18090;SDS011;9172;49.948;9.208;2024-02-04T04:06:52;1.90;;;1.23;;
18090;SDS011;9172;49.948;9.208;2024-02-04T04:09:21;1.90;;;1.33;;
18090;SDS011;9172;49.948;9.208;2024-02-04T04:11:49;1.67;;;1.13;;
18090;SDS011;9172;49.948;9.208;2024-02-04T04:14:18;1.37;;;1.17;;
18090;SDS011;9172;49.948;9.208;2024-02-04T04:16:47;1.77;;;1.37;;
18090;SDS011;9172;49.948;9.208;2024-02-04T04:19:15;1.80;;;1.47;;
18090;SDS011;9172;49.948;9.208;2024-02-04T04:21:44;3.17;;;1.10;;
18090;SDS011;9172;49.948;9.208;2024-02-04T04:24:12;1.57;;;1.37;;
18090;SDS011;9172;49.948;9.208;2024-02-04T04:26:42;1.80;;;1.20;;
18090;SDS011;9172;49.948;9.208;2024-02-04T04:29:10;1.73;;;1.20;;
18090;SDS011;9172;49.948;9.208;2024-02-04T04:31:39;1.43;;;1.10;;
18090;SDS011;9172;49.948;9.208;2024-02-04T04:34:07;2.60;;;1.53;;
18090;SDS011;9172;49.948;9.208;2024-02-04T04:36:36;1.93;;;1.40;;
18090;SDS011;9172;49.948;9.208;2024-02-04T04:39:04;1.73;;;1.40;;
18090;SDS011;9172;49.948;9.208;2024-02-04T04:41:33;1.40;;;1.20;;
18090;SDS011;9172;49.948;9.208;2024-02-04T04:44:03;1.60;;;1.30;;
18090;SDS011;9172;49.948;9.208;2024-02-04T04:46:31;1.67;;;1.30;;
18090;SDS011;9172;49.948;9.208;2024-02-04T04:49:00;0.80;;;0.80;;
18090;SDS011;9172;49.948;9.208;2024-02-04T04:51:28;3.57;;;1.97;;
18090;SDS011;9172;49.948;9.208;2024-02-04T04:53:57;2.33;;;1.27;;
18090;SDS011;9172;49.948;9.208;2024-02-04T04:56:26;1.30;;;1.10;;
18090;SDS011;9172;49.948;9.208;2024-02-04T04:58:54;4.10;;;1.20;;
18090;SDS011;9172;49.948;9.208;2024-02-04T05:01:45;1.50;;;1.20;;
18090;SDS011;9172;49.948;9.208;2024-02-04T05:04:13;1.10;;;1.00;;
18090;SDS011;9172;49.948;9.208;2024-02-04T05:06:44;1.63;;;1.10;;
18090;SDS011;9172;49.948;9.208;2024-02-04T05:09:13;1.50;;;1.03;;
18090;SDS011;9172;49.948;9.208;2024-02-04T05:11:42;2.80;;;1.40;;
18090;SDS011;9172;49.948;9.208;2024-02-04T05:14:11;1.50;;;1.10;;
18090;SDS011;9172;49.948;9.208;2024-02-04T05:16:39;1.43;;;1.20;;
18090;SDS011;9172;49.948;9.208;2024-02-04T05:19:10;1.30;;;1.10;;
18090;SDS011;9172;49.948;9.208;2024-02-04T05:21:39;1.20;;;0.90;;
18090;SDS011;9172;49.948;9.208;2024-02-04T05:24:07;1.03;;;0.90;;
18090;SDS011;9172;49.948;9.208;2024-02-04T05:26:36;0.90;;;0.80;;
18090;SDS011;9172;49.948;9.208;2024-02-04T05:29:04;1.63;;;1.13;;
18090;SDS011;9172;49.948;9.208;2024-02-04T05:31:33;2.40;;;1.03;;
18090;SDS011;9172;49.948;9.208;2024-02-04T05:34:05;1.20;;;0.90;;
18090;SDS011;9172;49.948;9.208;2024-02-04T05:36:34;4.00;;;1.27;;
18090;SDS011;9172;49.948;9.208;2024-02-04T05:39:09;1.53;;;1.23;;
18090;SDS011;9172;49.948;9.208;2024-02-04T05:41:38;1.13;;;1.00;;
18090;SDS011;9172;49.948;9.208;2024-02-04T05:44:07;4.10;;;0.87;;
18090;SDS011;9172;49.948;9.208;2024-02-04T05:46:36;1.23;;;0.97;;
18090;SDS011;9172;49.948;9.208;2024-02-04T05:49:05;1.00;;;0.90;;
18090;SDS011;9172;49.948;9.208;2024-02-04T05:51:37;1.00;;;0.90;;
18090;SDS011;9172;49.948;9.208;2024-02-04T05:54:16;1.13;;;1.00;;
18090;SDS011;9172;49.948;9.208;2024-02-04T05:56:44;0.97;;;0.87;;
18090;SDS011;9172;49.948;9.208;2024-02-04T05:59:13;0.80;;;0.80;;
18090;SDS011;9172;49.948;9.208;2024-02-04T06:01:42;1.50;;;0.70;;
18090;SDS011;9172;49.948;9.208;2024-02-04T06:04:11;1.27;;;0.77;;
18090;SDS011;9172;49.948;9.208;2024-02-04T06:06:40;0.97;;;0.70;;
18090;SDS011;9172;49.948;9.208;2024-02-04T06:09:08;1.40;;;1.03;;
18090;SDS011;9172;49.948;9.208;2024-02-04T06:11:37;1.10;;;0.93;;
18090;SDS011;9172;49.948;9.208;2024-02-04T06:14:05;0.80;;;0.80;;
18090;SDS011;9172;49.948;9.208;2024-02-04T06:16:34;0.80;;;0.67;;
18090;SDS011;9172;49.948;9.208;2024-02-04T06:19:02;1.10;;;0.97;;
18090;SDS011;9172;49.948;9.208;2024-02-04T06:21:31;0.90;;;0.80;;
18090;SDS011;9172;49.948;9.208;2024-02-04T06:24:00;1.03;;;0.80;;
18090;SDS011;9172;49.948;9.208;2024-02-04T06:26:29;1.10;;;0.90;;
18090;SDS011;9172;49.948;9.208;2024-02-04T06:28:57;1.53;;;0.83;;
18090;SDS011;9172;49.948;9.208;2024-02-04T06:31:26;0.70;;;0.70;;
18090;SDS011;9172;49.948;9.208;2024-02-04T06:33:54;1.00;;;0.90;;
18090;SDS011;9172;49.948;9.208;2024-02-04T06:36:23;2.00;;;0.80;;
18090;SDS011;9172;49.948;9.208;2024-02-04T06:38:51;0.60;;;0.60;;
18090;SDS011;9172;49.948;9.208;2024-02-04T06:41:20;0.97;;;0.70;;
18090;SDS011;9172;49.948;9.208;2024-02-04T06:43:48;0.80;;;0.60;;
18090;SDS011;9172;49.948;9.208;2024-02-04T06:46:24;0.80;;;0.70;;
18090;SDS011;9172;49.948;9.208;2024-02-04T06:48:53;1.27;;;0.93;;
18090;SDS011;9172;49.948;9.208;2024-02-04T06:51:21;0.70;;;0.70;;
18090;SDS011;9172;49.948;9.208;2024-02-04T06:53:50;0.97;;;0.70;;
18090;SDS011;9172;49.948;9.208;2024-02-04T06:56:19;1.23;;;0.80;;
18090;SDS011;9172;49.948;9.208;2024-02-04T06:58:47;0.90;;;0.80;;
18090;SDS011;9172;49.948;9.208;2024-02-04T07:01:16;0.73;;;0.73;;
18090;SDS011;9172;49.948;9.208;2024-02-04T07:03:45;0.87;;;0.67;;
18090;SDS011;9172;49.948;9.208;2024-02-04T07:06:13;1.33;;;1.07;;
18090;SDS011;9172;49.948;9.208;2024-02-04T07:08:42;0.80;;;0.70;;
18090;SDS011;9172;49.948;9.208;2024-02-04T07:11:10;0.63;;;0.50;;
18090;SDS011;9172;49.948;9.208;2024-02-04T07:13:39;1.00;;;0.80;;
18090;SDS011;9172;49.948;9.208;2024-02-04T07:16:07;0.53;;;0.53;;
18090;SDS011;9172;49.948;9.208;2024-02-04T07:18:36;0.77;;;0.70;;
18090;SDS011;9172;49.948;9.208;2024-02-04T07:21:05;0.60;;;0.60;;
18090;SDS011;9172;49.948;9.208;2024-02-04T07:23:33;0.53;;;0.53;;
18090;SDS011;9172;49.948;9.208;2024-02-04T07:26:02;0.70;;;0.63;;
18090;SDS011;9172;49.948;9.208;2024-02-04T07:28:31;0.67;;;0.57;;
18090;SDS011;9172;49.948;9.208;2024-02-04T07:31:00;0.57;;;0.50;;
18090;SDS011;9172;49.948;9.208;2024-02-04T07:33:28;0.70;;;0.60;;
18090;SDS011;9172;49.948;9.208;2024-02-04T07:35:57;2.30;;;0.70;;
18090;SDS011;9172;49.948;9.208;2024-02-04T07:38:25;0.80;;;0.60;;
18090;SDS011;9172;49.948;9.208;2024-02-04T07:40:54;0.63;;;0.60;;
18090;SDS011;9172;49.948;9.208;2024-02-04T07:43:24;0.80;;;0.50;;
18090;SDS011;9172;49.948;9.208;2024-02-04T07:45:53;0.60;;;0.60;;
18090;SDS011;9172;49.948;9.208;2024-02-04T07:48:21;2.93;;;0.60;;
18090;SDS011;9172;49.948;9.208;2024-02-04T07:50:50;0.87;;;0.60;;
18090;SDS011;9172;49.948;9.208;2024-02-04T07:53:19;2.00;;;0.70;;
18090;SDS011;9172;49.948;9.208;2024-02-04T07:55:48;0.97;;;0.70;;
18090;SDS011;9172;49.948;9.208;2024-02-04T07:58:17;1.00;;;0.63;;
18090;SDS011;9172;49.948;9.208;2024-02-04T08:00:45;1.37;;;0.77;;
18090;SDS011;9172;49.948;9.208;2024-02-04T08:03:14;2.40;;;0.70;;
18090;SDS011;9172;49.948;9.208;2024-02-04T08:05:43;0.90;;;0.60;;
18090;SDS011;9172;49.948;9.208;2024-02-04T08:08:11;1.37;;;0.67;;
18090;SDS011;9172;49.948;9.208;2024-02-04T08:10:40;0.67;;;0.50;;
18090;SDS011;9172;49.948;9.208;2024-02-04T08:13:09;0.83;;;0.63;;
18090;SDS011;9172;49.948;9.208;2024-02-04T08:15:37;0.60;;;0.60;;
18090;SDS011;9172;49.948;9.208;2024-02-04T08:18:06;2.87;;;0.90;;
18090;SDS011;9172;49.948;9.208;2024-02-04T08:20:34;0.60;;;0.50;;
18090;SDS011;9172;49.948;9.208;2024-02-04T08:23:03;0.83;;;0.60;;
18090;SDS011;9172;49.948;9.208;2024-02-04T08:25:32;0.40;;;0.40;;
18090;SDS011;9172;49.948;9.208;2024-02-04T08:28:01;0.37;;;0.37;;
18090;SDS011;9172;49.948;9.208;2024-02-04T08:30:30;0.70;;;0.50;;
18090;SDS011;9172;49.948;9.208;2024-02-04T08:32:58;0.50;;;0.50;;
18090;SDS011;9172;49.948;9.208;2024-02-04T08:35:31;0.70;;;0.53;;
18090;SDS011;9172;49.948;9.208;2024-02-04T08:38:06;0.40;;;0.40;;
18090;SDS011;9172;49.948;9.208;2024-02-04T08:40:39;0.50;;;0.50;;
18090;SDS011;9172;49.948;9.208;2024-02-04T08:43:09;0.40;;;0.40;;
18090;SDS011;9172;49.948;9.208;2024-02-04T08:48:28;0.30;;;0.30;;
18090;SDS011;9172;49.948;9.208;2024-02-04T08:53:44;0.57;;;0.50;;
18090;SDS011;9172;49.948;9.208;2024-02-04T08:56:13;0.40;;;0.40;;
18090;SDS011;9172;49.948;9.208;2024-02-04T08:58:43;0.30;;;0.30;;
18090;SDS011;9172;49.948;9.208;2024-02-04T09:01:13;0.80;;;0.47;;
18090;SDS011;9172;49.948;9.208;2024-02-04T09:03:41;0.50;;;0.50;;
18090;SDS011;9172;49.948;9.208;2024-02-04T09:06:10;0.40;;;0.40;;
18090;SDS011;9172;49.948;9.208;2024-02-04T09:11:17;1.80;;;1.30;;
18090;SDS011;9172;49.948;9.208;2024-02-04T09:13:46;0.50;;;0.50;;
18090;SDS011;9172;49.948;9.208;2024-02-04T09:16:15;0.57;;;0.50;;
18090;SDS011;9172;49.948;9.208;2024-02-04T09:18:44;0.60;;;0.60;;
18090;SDS011;9172;49.948;9.208;2024-02-04T09:21:13;0.97;;;0.50;;
18090;SDS011;9172;49.948;9.208;2024-02-04T09:23:42;2.40;;;0.50;;
18090;SDS011;9172;49.948;9.208;2024-02-04T09:26:10;2.73;;;0.80;;
18090;SDS011;9172;49.948;9.208;2024-02-04T09:28:39;0.50;;;0.50;;
18090;SDS011;9172;49.948;9.208;2024-02-04T09:31:08;0.70;;;0.60;;
18090;SDS011;9172;49.948;9.208;2024-02-04T09:33:36;2.50;;;0.50;;
18090;SDS011;9172;49.948;9.208;2024-02-04T09:36:07;0.47;;;0.47;;
18090;SDS011;9172;49.948;9.208;2024-02-04T09:38:35;0.40;;;0.40;;
18090;SDS011;9172;49.948;9.208;2024-02-04T09:41:04;0.53;;;0.50;;
18090;SDS011;9172;49.948;9.208;2024-02-04T09:43:33;0.63;;;0.60;;
18090;SDS011;9172;49.948;9.208;2024-02-04T09:46:03;0.70;;;0.53;;
18090;SDS011;9172;49.948;9.208;2024-02-04T09:48:32;1.00;;;0.60;;
18090;SDS011;9172;49.948;9.208;2024-02-04T09:51:03;0.50;;;0.50;;
18090;SDS011;9172;49.948;9.208;2024-02-04T09:53:34;0.60;;;0.60;;
18090;SDS011;9172;49.948;9.208;2024-02-04T09:56:04;0.73;;;0.60;;
18090;SDS011;9172;49.948;9.208;2024-02-04T09:58:35;0.50;;;0.50;;
18090;SDS011;9172;49.948;9.208;2024-02-04T10:01:04;0.47;;;0.47;;
18090;SDS011;9172;49.948;9.208;2024-02-04T10:03:35;2.20;;;0.60;;
18090;SDS011;9172;49.948;9.208;2024-02-04T10:06:04;0.50;;;0.50;;
18090;SDS011;9172;49.948;9.208;2024-02-04T10:08:33;1.33;;;0.60;;
18090;SDS011;9172;49.948;9.208;2024-02-04T10:11:04;1.43;;;0.50;;
18090;SDS011;9172;49.948;9.208;2024-02-04T10:13:42;1.80;;;1.00;;
18090;SDS011;9172;49.948;9.208;2024-02-04T10:16:12;2.23;;;0.90;;
18090;SDS011;9172;49.948;9.208;2024-02-04T10:18:44;1.30;;;0.67;;
18090;SDS011;9172;49.948;9.208;2024-02-04T10:21:15;1.00;;;0.60;;
18090;SDS011;9172;49.948;9.208;2024-02-04T10:23:44;0.87;;;0.60;;
18090;SDS011;9172;49.948;9.208;2024-02-04T10:26:13;1.07;;;0.73;;
18090;SDS011;9172;49.948;9.208;2024-02-04T10:28:44;1.07;;;0.60;;
18090;SDS011;9172;49.948;9.208;2024-02-04T10:31:13;2.00;;;0.83;;
18090;SDS011;9172;49.948;9.208;2024-02-04T10:33:43;1.17;;;0.67;;
18090;SDS011;9172;49.948;9.208;2024-02-04T10:36:11;1.83;;;0.53;;
18090;SDS011;9172;49.948;9.208;2024-02-04T10:38:41;1.23;;;0.60;;
18090;SDS011;9172;49.948;9.208;2024-02-04T10:41:10;0.80;;;0.50;;
18090;SDS011;9172;49.948;9.208;2024-02-04T10:43:50;2.00;;;0.83;;
18090;SDS011;9172;49.948;9.208;2024-02-04T10:46:22;4.70;;;0.80;;
18090;SDS011;9172;49.948;9.208;2024-02-04T10:48:54;0.80;;;0.60;;
18090;SDS011;9172;49.948;9.208;2024-02-04T10:51:25;1.80;;;0.50;;
18090;SDS011;9172;49.948;9.208;2024-02-04T10:53:54;0.40;;;0.40;;
18090;SDS011;9172;49.948;9.208;2024-02-04T10:56:25;0.90;;;0.60;;
18090;SDS011;9172;49.948;9.208;2024-02-04T10:58:56;1.33;;;0.60;;
18090;SDS011;9172;49.948;9.208;2024-02-04T11:01:26;0.37;;;0.37;;
18090;SDS011;9172;49.948;9.208;2024-02-04T11:03:55;0.70;;;0.60;;
18090;SDS011;9172;49.948;9.208;2024-02-04T11:06:25;0.90;;;0.60;;
18090;SDS011;9172;49.948;9.208;2024-02-04T11:08:55;0.50;;;0.50;;
18090;SDS011;9172;49.948;9.208;2024-02-04T11:11:26;1.43;;;0.60;;
18090;SDS011;9172;49.948;9.208;2024-02-04T11:13:56;0.60;;;0.60;;
18090;SDS011;9172;49.948;9.208;2024-02-04T11:16:31;0.50;;;0.50;;
18090;SDS011;9172;49.948;9.208;2024-02-04T11:19:14;0.40;;;0.40;;
18090;SDS011;9172;49.948;9.208;2024-02-04T11:21:50;0.40;;;0.40;;
18090;SDS011;9172;49.948;9.208;2024-02-04T11:24:29;1.53;;;0.57;;
18090;SDS011;9172;49.948;9.208;2024-02-04T11:27:02;0.93;;;0.67;;
18090;SDS011;9172;49.948;9.208;2024-02-04T11:29:30;0.40;;;0.40;;
18090;SDS011;9172;49.948;9.208;2024-02-04T11:32:01;0.40;;;0.40;;
18090;SDS011;9172;49.948;9.208;2024-02-04T11:34:33;0.50;;;0.50;;
18090;SDS011;9172;49.948;9.208;2024-02-04T11:37:13;0.40;;;0.40;;
18090;SDS011;9172;49.948;9.208;2024-02-04T11:39:48;0.43;;;0.40;;
18090;SDS011;9172;49.948;9.208;2024-02-04T11:42:18;0.57;;;0.57;;
18090;SDS011;9172;49.948;9.208;2024-02-04T11:44:47;0.40;;;0.40;;
18090;SDS011;9172;49.948;9.208;2024-02-04T11:47:23;0.50;;;0.50;;
18090;SDS011;9172;49.948;9.208;2024-02-04T11:49:54;1.13;;;0.50;;
18090;SDS011;9172;49.948;9.208;2024-02-04T11:52:27;0.77;;;0.50;;
18090;SDS011;9172;49.948;9.208;2024-02-04T11:54:55;0.40;;;0.40;;
18090;SDS011;9172;49.948;9.208;2024-02-04T11:57:24;0.77;;;0.60;;
18090;SDS011;9172;49.948;9.208;2024-02-04T11:59:54;0.80;;;0.50;;
18090;SDS011;9172;49.948;9.208;2024-02-04T12:02:23;0.40;;;0.40;;
18090;SDS011;9172;49.948;9.208;2024-02-04T12:04:51;0.40;;;0.40;;
18090;SDS011;9172;49.948;9.208;2024-02-04T12:07:21;0.60;;;0.50;;
18090;SDS011;9172;49.948;9.208;2024-02-04T12:09:49;0.50;;;0.50;;
18090;SDS011;9172;49.948;9.208;2024-02-04T12:12:19;0.60;;;0.40;;
18090;SDS011;9172;49.948;9.208;2024-02-04T12:14:48;0.50;;;0.50;;
18090;SDS011;9172;49.948;9.208;2024-02-04T12:17:19;0.80;;;0.60;;
18090;SDS011;9172;49.948;9.208;2024-02-04T12:19:48;0.47;;;0.47;;
18090;SDS011;9172;49.948;9.208;2024-02-04T12:22:17;1.07;;;0.53;;
18090;SDS011;9172;49.948;9.208;2024-02-04T12:24:46;0.50;;;0.50;;
18090;SDS011;9172;49.948;9.208;2024-02-04T12:27:15;0.87;;;0.67;;
18090;SDS011;9172;49.948;9.208;2024-02-04T12:29:44;1.37;;;0.50;;
18090;SDS011;9172;49.948;9.208;2024-02-04T12:32:13;0.53;;;0.50;;
18090;SDS011;9172;49.948;9.208;2024-02-04T12:34:46;0.60;;;0.60;;
18090;SDS011;9172;49.948;9.208;2024-02-04T12:37:14;0.80;;;0.50;;
18090;SDS011;9172;49.948;9.208;2024-02-04T12:39:43;1.10;;;0.70;;
18090;SDS011;9172;49.948;9.208;2024-02-04T12:42:15;2.10;;;0.50;;
18090;SDS011;9172;49.948;9.208;2024-02-04T12:44:46;0.70;;;0.60;;
18090;SDS011;9172;49.948;9.208;2024-02-04T12:47:19;0.90;;;0.60;;
18090;SDS011;9172;49.948;9.208;2024-02-04T12:49:47;0.70;;;0.70;;
18090;SDS011;9172;49.948;9.208;2024-02-04T12:52:19;0.67;;;0.67;;
18090;SDS011;9172;49.948;9.208;2024-02-04T12:54:47;4.03;;;0.73;;
18090;SDS011;9172;49.948;9.208;2024-02-04T12:57:23;0.93;;;0.70;;
18090;SDS011;9172;49.948;9.208;2024-02-04T12:59:52;0.70;;;0.70;;
18090;SDS011;9172;49.948;9.208;2024-02-04T13:02:22;1.10;;;0.70;;
18090;SDS011;9172;49.948;9.208;2024-02-04T13:04:51;0.90;;;0.70;;
18090;SDS011;9172;49.948;9.208;2024-02-04T13:07:19;0.70;;;0.60;;
18090;SDS011;9172;49.948;9.208;2024-02-04T13:09:57;0.87;;;0.60;;
18090;SDS011;9172;49.948;9.208;2024-02-04T13:12:26;0.80;;;0.80;;
18090;SDS011;9172;49.948;9.208;2024-02-04T13:14:55;1.53;;;0.60;;
18090;SDS011;9172;49.948;9.208;2024-02-04T13:17:24;1.50;;;0.63;;
18090;SDS011;9172;49.948;9.208;2024-02-04T13:19:52;0.83;;;0.70;;
18090;SDS011;9172;49.948;9.208;2024-02-04T13:22:21;0.80;;;0.70;;
18090;SDS011;9172;49.948;9.208;2024-02-04T13:24:50;2.17;;;0.90;;
18090;SDS011;9172;49.948;9.208;2024-02-04T13:27:18;0.60;;;0.60;;
18090;SDS011;9172;49.948;9.208;2024-02-04T13:29:47;1.13;;;0.80;;
18090;SDS011;9172;49.948;9.208;2024-02-04T13:32:16;0.77;;;0.73;;
18090;SDS011;9172;49.948;9.208;2024-02-04T13:34:44;1.30;;;0.70;;
18090;SDS011;9172;49.948;9.208;2024-02-04T13:37:15;0.90;;;0.50;;
18090;SDS011;9172;49.948;9.208;2024-02-04T13:39:44;1.20;;;0.93;;
18090;SDS011;9172;49.948;9.208;2024-02-04T13:42:12;2.10;;;0.83;;
18090;SDS011;9172;49.948;9.208;2024-02-04T13:44:41;0.70;;;0.70;;
18090;SDS011;9172;49.948;9.208;2024-02-04T13:47:09;0.50;;;0.50;;
18090;SDS011;9172;49.948;9.208;2024-02-04T13:49:38;1.10;;;0.70;;
18090;SDS011;9172;49.948;9.208;2024-02-04T13:52:06;2.10;;;0.83;;
18090;SDS011;9172;49.948;9.208;2024-02-04T13:54:35;0.63;;;0.60;;
18090;SDS011;9172;49.948;9.208;2024-02-04T13:57:04;0.80;;;0.80;;
18090;SDS011;9172;49.948;9.208;2024-02-04T13:59:33;0.70;;;0.60;;
18090;SDS011;9172;49.948;9.208;2024-02-04T14:02:01;0.70;;;0.70;;
18090;SDS011;9172;49.948;9.208;2024-02-04T14:04:31;0.70;;;0.60;;
18090;SDS011;9172;49.948;9.208;2024-02-04T14:07:00;0.63;;;0.53;;
18090;SDS011;9172;49.948;9.208;2024-02-04T14:09:28;0.67;;;0.67;;
18090;SDS011;9172;49.948;9.208;2024-02-04T14:11:58;0.93;;;0.60;;
18090;SDS011;9172;49.948;9.208;2024-02-04T14:14:26;0.97;;;0.70;;
18090;SDS011;9172;49.948;9.208;2024-02-04T14:16:55;1.33;;;0.70;;
18090;SDS011;9172;49.948;9.208;2024-02-04T14:19:23;0.70;;;0.70;;
18090;SDS011;9172;49.948;9.208;2024-02-04T14:21:52;1.60;;;0.70;;
18090;SDS011;9172;49.948;9.208;2024-02-04T14:24:21;2.27;;;0.60;;
18090;SDS011;9172;49.948;9.208;2024-02-04T14:26:55;3.23;;;0.80;;
18090;SDS011;9172;49.948;9.208;2024-02-04T14:29:25;0.77;;;0.70;;
18090;SDS011;9172;49.948;9.208;2024-02-04T14:31:54;0.80;;;0.60;;
18090;SDS011;9172;49.948;9.208;2024-02-04T14:34:24;0.83;;;0.70;;
18090;SDS011;9172;49.948;9.208;2024-02-04T14:36:54;0.60;;;0.60;;
18090;SDS011;9172;49.948;9.208;2024-02-04T14:39:22;0.63;;;0.50;;
18090;SDS011;9172;49.948;9.208;2024-02-04T14:41:55;3.40;;;0.70;;
18090;SDS011;9172;49.948;9.208;2024-02-04T14:44:24;0.80;;;0.60;;
18090;SDS011;9172;49.948;9.208;2024-02-04T14:46:52;1.07;;;0.70;;
18090;SDS011;9172;49.948;9.208;2024-02-04T14:49:21;1.90;;;0.80;;
18090;SDS011;9172;49.948;9.208;2024-02-04T14:51:49;0.57;;;0.53;;
18090;SDS011;9172;49.948;9.208;2024-02-04T14:54:18;0.87;;;0.70;;
18090;SDS011;9172;49.948;9.208;2024-02-04T14:56:47;0.50;;;0.50;;
18090;SDS011;9172;49.948;9.208;2024-02-04T14:59:17;2.80;;;0.77;;
18090;SDS011;9172;49.948;9.208;2024-02-04T15:01:46;0.67;;;0.60;;
18090;SDS011;9172;49.948;9.208;2024-02-04T15:04:15;1.47;;;0.70;;
18090;SDS011;9172;49.948;9.208;2024-02-04T15:06:43;0.90;;;0.60;;
18090;SDS011;9172;49.948;9.208;2024-02-04T15:09:12;0.80;;;0.60;;
18090;SDS011;9172;49.948;9.208;2024-02-04T15:11:42;2.67;;;0.60;;
18090;SDS011;9172;49.948;9.208;2024-02-04T15:14:12;1.57;;;0.70;;
18090;SDS011;9172;49.948;9.208;2024-02-04T15:16:43;0.67;;;0.60;;
18090;SDS011;9172;49.948;9.208;2024-02-04T15:19:12;0.93;;;0.80;;
18090;SDS011;9172;49.948;9.208;2024-02-04T15:21:42;0.70;;;0.60;;